Sunburg, MN (56289)

2:24 PM CDT on September 02, 2015 (GMT -0500)
Lake Florida | | Change Station
CLOSE
Current Station
Personal Weather Station
Location: Spicer, MN
Elevation: 1129 ft
Nearby Weather Stations

Elev 1129 ft 45.25 °N, 95.07 °W | Updated 8 seconds ago

Partly Cloudy
Partly Cloudy
80.1 °F
Feels Like 84 °F
N
4.3
Wind Variable Wind from East
Gusts 5.8 mph

Today
High -- | Low -- °F
--% Chance of Precip.
Yesterday
High -- | Low -- °F
Precip. -- in
6:43 AM 7:56 PM
Waning Gibbous, 78% visible
Pressure 29.88 in
Visibility 10.0 miles
Clouds Mostly Cloudy 2200 ft
Heat Index 84 °F
Dew Point 73 °F
Humidity 79%
Rainfall 0.00 in
Snow Depth Not available.
UV 4 out of 12
Pollen 10.00 out of 12
Air Quality Not available.
Flu Activity Not available.
METAR KBDH 021915Z AUTO 10006KT 10SM BKN022 28/23 A2988 RMK AO2 LTG DSNT E
Pressure 29.88 in
Visibility 10.0 miles
Clouds Mostly Cloudy 2200 ft
Heat Index 84 °F
Dew Point 73 °F
Humidity 79%
Rainfall 0.00 in
Snow Depth Not available.
UV 4 out of 12
Pollen 10.00 out of 12
Air Quality Not available.
Flu Activity Not available.
METAR KBDH 021915Z AUTO 10006KT 10SM BKN022 28/23 A2988 RMK AO2 LTG DSNT E

10-Day Weather Forecast

×

Almanac

Astronomy

Sep. 02, 2015 Rise Set
Actual Time
Civil Twilight
Nautical Twilight
Astronomical Twilight
Moon
Length of Visible Light
Length of Day
Tomorrow will be .
, % of the Moon is Illuminated

Today's Extremes

State Highs State Lows

Community

WunderPhotos

Upload Photos

1,851,799 photos uploaded!

WunderBlogs® & News

Nearby

Air Quality

  Air Quality AQ Index Pollutant
Not available.

Snow Depth

Station Depth Elevation

Earthquake Activity

City Distance Mag. Time & Date
Minimum magnitude displayed is 2.5.

Coastal Water Temperatures

Place Temperature

Stations

Nearby Weather Stations

Station Location Temp. Windchill Dew Point Humidity Wind Precip. Elev Updated Type